createdAt,value
2023-02-16T00:01:58.428Z,99848.84
2023-02-16T00:07:00.276Z,99840.94
2023-02-16T00:12:20.721Z,99838.69
2023-02-16T00:17:22.468Z,99839.67
2023-02-16T00:22:24.162Z,99837.94
2023-02-16T00:27:25.837Z,99835.28
2023-02-16T00:32:29.370Z,99838.17
2023-02-16T00:37:31.157Z,99833.23
2023-02-16T00:42:34.620Z,99828.70
2023-02-16T00:47:41.955Z,99828.53
2023-02-16T00:52:46.405Z,99824.13
2023-02-16T00:58:02.651Z,99820.36
2023-02-16T01:03:10.409Z,99813.66
2023-02-16T01:08:33.622Z,99806.10
2023-02-16T01:13:43.525Z,99804.44
2023-02-16T01:18:45.874Z,99800.15
2023-02-16T01:23:48.513Z,99803.58
2023-02-16T01:28:50.168Z,99796.80
2023-02-16T01:33:51.917Z,99798.96
2023-02-16T01:38:53.753Z,99802.70
2023-02-16T01:44:01.558Z,99802.98
2023-02-16T01:49:03.474Z,99797.34
2023-02-16T01:54:59.936Z,99796.88
2023-02-16T02:00:09.166Z,99792.29
2023-02-16T02:05:35.263Z,99792.77
2023-02-16T02:11:03.071Z,99784.98
2023-02-16T02:16:07.786Z,99779.15
2023-02-16T02:21:42.095Z,99778.70
2023-02-16T02:26:46.740Z,99783.71
2023-02-16T02:32:16.829Z,99783.58
2023-02-16T02:37:43.967Z,99781.30
2023-02-16T02:43:14.233Z,99779.76
2023-02-16T02:48:16.759Z,99781.02
2023-02-16T02:53:19.204Z,99775.40
2023-02-16T02:58:41.096Z,99774.46
2023-02-16T03:03:48.161Z,99779.67
2023-02-16T03:08:56.123Z,99780.16
2023-02-16T03:14:07.573Z,99782.80
2023-02-16T03:19:31.619Z,99780.41
2023-02-16T03:24:52.296Z,99782.73
2023-02-16T03:29:56.209Z,99781.30
2023-02-16T03:34:58.020Z,99772.00
2023-02-16T03:40:18.609Z,99763.95
2023-02-16T03:45:23.265Z,99761.81
2023-02-16T03:50:27.051Z,99761.80
2023-02-16T03:55:28.691Z,99759.01
2023-02-16T04:00:30.594Z,99758.36
2023-02-16T04:05:32.880Z,99762.77
2023-02-16T04:10:34.962Z,99757.44
2023-02-16T04:15:36.728Z,99754.44
2023-02-16T04:20:38.454Z,99750.60
2023-02-16T04:25:40.036Z,99749.77
2023-02-16T04:30:41.839Z,99741.85
2023-02-16T04:35:43.656Z,99737.39
2023-02-16T04:40:45.324Z,99732.33
2023-02-16T04:45:47.041Z,99733.19
2023-02-16T04:50:49.816Z,99738.93
2023-02-16T04:55:51.504Z,99731.48
2023-02-16T05:00:53.110Z,99724.91
2023-02-16T05:05:54.807Z,99728.16
2023-02-16T05:11:14.862Z,99734.07
2023-02-16T05:16:16.556Z,99725.98
2023-02-16T05:21:33.796Z,99721.08
2023-02-16T05:26:37.027Z,99715.66
2023-02-16T05:31:38.842Z,99721.54
2023-02-16T05:36:40.581Z,99723.00
2023-02-16T05:41:42.276Z,99729.24
2023-02-16T05:46:44.618Z,99737.45
2023-02-16T05:51:46.254Z,99740.61
2023-02-16T05:56:50.579Z,99753.62
2023-02-16T06:01:52.732Z,99754.05
2023-02-16T06:06:54.694Z,99761.73
2023-02-16T06:11:56.316Z,99759.60
2023-02-16T06:16:58.873Z,99764.51
2023-02-16T06:22:00.611Z,99763.73
2023-02-16T06:27:02.342Z,99763.02
2023-02-16T06:32:04.296Z,99769.67
2023-02-16T06:37:06.204Z,99765.36
2023-02-16T06:42:07.844Z,99757.23
2023-02-16T06:47:09.911Z,99759.54
2023-02-16T06:52:11.582Z,99761.66
2023-02-16T06:57:13.223Z,99762.20
2023-02-16T07:02:15.004Z,99766.37
2023-02-16T07:07:16.820Z,99774.47
2023-02-16T07:12:18.518Z,99775.87
2023-02-16T07:17:20.435Z,99771.54
2023-02-16T07:22:22.067Z,99770.89
2023-02-16T07:27:25.255Z,99774.31
2023-02-16T07:32:28.566Z,99768.13
2023-02-16T07:37:30.442Z,99766.83
2023-02-16T07:42:33.345Z,99766.96
2023-02-16T07:47:35.036Z,99761.20
2023-02-16T07:52:36.771Z,99756.95
2023-02-16T07:57:39.638Z,99763.01
2023-02-16T08:02:41.496Z,99748.83
2023-02-16T08:07:44.698Z,99748.62
2023-02-16T08:12:47.659Z,99744.61
2023-02-16T08:17:49.333Z,99734.10
2023-02-16T08:22:54.205Z,99731.88
2023-02-16T08:27:55.895Z,99738.80
2023-02-16T08:33:00.977Z,99740.23
2023-02-16T08:38:02.736Z,99731.02
2023-02-16T08:43:04.430Z,99736.02
2023-02-16T08:48:06.293Z,99737.92
2023-02-16T08:53:08.093Z,99736.41
2023-02-16T08:58:09.682Z,99743.11
2023-02-16T09:03:11.444Z,99746.21
2023-02-16T09:08:14.278Z,99748.33
2023-02-16T09:13:16.299Z,99746.30
2023-02-16T09:18:18.217Z,99746.11
2023-02-16T09:23:21.855Z,99746.87
2023-02-16T09:28:23.700Z,99747.13
2023-02-16T09:33:26.113Z,99754.88
2023-02-16T09:38:28.257Z,99755.09
2023-02-16T09:43:40.850Z,99745.02
2023-02-16T09:48:47.167Z,99747.72
2023-02-16T09:53:56.899Z,99747.73
2023-02-16T09:59:14.789Z,99744.02
2023-02-16T10:04:24.220Z,99739.20
2023-02-16T10:09:29.586Z,99725.38
2023-02-16T10:14:54.038Z,99729.11
2023-02-16T10:19:59.237Z,99727.45
2023-02-16T10:25:12.863Z,99718.96
2023-02-16T10:30:20.928Z,99716.17
2023-02-16T10:35:36.698Z,99705.85
2023-02-16T10:40:52.534Z,99705.95
2023-02-16T10:45:59.077Z,99699.91
2023-02-16T10:51:09.397Z,99683.77
2023-02-16T10:56:35.099Z,99673.27
2023-02-16T11:01:39.806Z,99662.73
2023-02-16T11:06:41.975Z,99661.31
2023-02-16T11:11:43.677Z,99655.08
2023-02-16T11:16:46.540Z,99657.16
2023-02-16T11:21:52.088Z,99650.68
2023-02-16T11:27:14.452Z,99646.94
2023-02-16T11:32:18.803Z,99634.25
2023-02-16T11:37:27.616Z,99626.78
2023-02-16T11:42:34.826Z,99622.96
2023-02-16T11:47:43.061Z,99621.24
2023-02-16T11:52:49.447Z,99631.29
2023-02-16T11:57:51.781Z,99633.16
2023-02-16T12:03:06.710Z,99629.88
2023-02-16T12:08:30.393Z,99623.75
2023-02-16T12:13:59.908Z,99614.98
2023-02-16T12:19:22.899Z,99609.17
2023-02-16T12:24:53.085Z,99609.32
2023-02-16T12:30:23.431Z,99607.88
2023-02-16T12:36:10.409Z,99608.40
2023-02-16T12:41:40.066Z,99612.36
2023-02-16T12:46:50.821Z,99602.61
2023-02-16T12:51:59.440Z,99598.70
2023-02-16T12:57:10.537Z,99585.83
2023-02-16T13:02:21.499Z,99580.73
2023-02-16T13:07:39.804Z,99575.71
2023-02-16T13:13:00.630Z,99574.95
2023-02-16T13:18:07.261Z,99568.86
2023-02-16T13:23:37.811Z,99562.98
2023-02-16T13:29:17.407Z,99556.00
2023-02-16T13:34:46.570Z,99554.27
2023-02-16T13:40:01.325Z,99555.77
2023-02-16T13:45:12.345Z,99550.47
2023-02-16T13:50:23.808Z,99548.63
2023-02-16T13:55:37.764Z,99543.06
2023-02-16T14:00:49.318Z,99541.40
2023-02-16T14:06:15.100Z,99532.96
2023-02-16T14:11:19.141Z,99532.56
2023-02-16T14:16:31.622Z,99535.88
2023-02-16T14:21:40.778Z,99538.10
2023-02-16T14:27:01.056Z,99541.79
2023-02-16T14:32:24.482Z,99549.59
2023-02-16T14:37:33.746Z,99556.21
2023-02-16T14:42:36.191Z,99557.04
2023-02-16T14:47:56.604Z,99556.27
2023-02-16T14:53:01.246Z,99552.13
2023-02-16T14:58:33.849Z,99550.55
2023-02-16T15:03:41.962Z,99549.84
2023-02-16T15:08:48.599Z,99544.15
2023-02-16T15:13:53.372Z,99546.61
2023-02-16T15:18:56.875Z,99548.66
2023-02-16T15:24:01.212Z,99547.66
2023-02-16T15:29:26.953Z,99547.66
2023-02-16T15:34:33.720Z,99546.27
2023-02-16T15:39:46.366Z,99544.63
2023-02-16T15:44:53.791Z,99548.05
2023-02-16T15:49:55.631Z,99548.19
2023-02-16T15:54:58.262Z,99538.33
2023-02-16T16:00:04.010Z,99538.59
2023-02-16T16:05:42.144Z,99539.09
2023-02-16T16:10:46.511Z,99540.20
2023-02-16T16:15:50.250Z,99542.86
2023-02-16T16:21:00.948Z,99537.14
2023-02-16T16:26:03.046Z,99539.94
2023-02-16T16:31:15.678Z,99532.25
2023-02-16T16:36:17.492Z,99534.02
2023-02-16T16:41:28.139Z,99536.02
2023-02-16T16:46:30.757Z,99530.55
2023-02-16T16:51:41.138Z,99527.52
2023-02-16T16:56:42.860Z,99534.42
2023-02-16T17:01:45.961Z,99533.98
2023-02-16T17:06:47.814Z,99541.50
2023-02-16T17:11:49.453Z,99539.48
2023-02-16T17:16:53.252Z,99540.73
2023-02-16T17:21:55.161Z,99537.39
2023-02-16T17:26:56.921Z,99533.79
2023-02-16T17:31:59.058Z,99532.69
2023-02-16T17:37:03.733Z,99537.52
2023-02-16T17:42:10.980Z,99535.42
2023-02-16T17:47:17.043Z,99534.58
2023-02-16T17:52:19.102Z,99532.86
2023-02-16T17:57:22.285Z,99530.59
2023-02-16T18:02:23.944Z,99536.95
2023-02-16T18:07:26.192Z,99539.86
2023-02-16T18:12:28.572Z,99544.24
2023-02-16T18:17:30.596Z,99549.64
2023-02-16T18:22:32.678Z,99552.05
2023-02-16T18:27:34.773Z,99543.56
2023-02-16T18:32:37.340Z,99541.06
2023-02-16T18:37:39.614Z,99546.24
2023-02-16T18:42:41.692Z,99553.66
2023-02-16T18:47:45.405Z,99561.75
2023-02-16T18:52:47.701Z,99572.09
2023-02-16T18:57:49.385Z,99573.58
2023-02-16T19:02:51.145Z,99569.06
2023-02-16T19:07:54.563Z,99566.24
2023-02-16T19:12:57.345Z,99566.58
2023-02-16T19:17:59.263Z,99575.63
2023-02-16T19:23:01.238Z,99570.83
2023-02-16T19:28:02.937Z,99566.20
2023-02-16T19:33:04.608Z,99564.84
2023-02-16T19:38:06.690Z,99563.98
2023-02-16T19:43:08.352Z,99561.31
2023-02-16T19:48:10.432Z,99556.45
2023-02-16T19:53:12.443Z,99553.90
2023-02-16T19:58:14.398Z,99554.45
2023-02-16T20:03:17.083Z,99554.16
2023-02-16T20:08:18.699Z,99553.58
2023-02-16T20:13:21.112Z,99555.10
2023-02-16T20:18:23.116Z,99564.18
2023-02-16T20:23:25.028Z,99559.83
2023-02-16T20:28:26.927Z,99559.55
2023-02-16T20:33:28.667Z,99554.76
2023-02-16T20:38:30.346Z,99558.51
2023-02-16T20:43:33.139Z,99556.48
2023-02-16T20:48:35.400Z,99557.36
2023-02-16T20:53:37.070Z,99556.98
2023-02-16T20:58:38.885Z,99560.30
2023-02-16T21:03:41.226Z,99555.95
2023-02-16T21:08:43.698Z,99550.61
2023-02-16T21:13:45.934Z,99547.67
2023-02-16T21:18:47.876Z,99550.45
2023-02-16T21:23:52.575Z,99551.90
2023-02-16T21:28:54.572Z,99545.48
2023-02-16T21:33:56.319Z,99545.04
2023-02-16T21:38:57.992Z,99542.59
2023-02-16T21:44:05.944Z,99545.68
2023-02-16T21:49:12.018Z,99547.47
2023-02-16T21:54:16.320Z,99538.72
2023-02-16T21:59:19.665Z,99536.27
2023-02-16T22:04:22.578Z,99533.98
2023-02-16T22:09:25.401Z,99538.39
2023-02-16T22:14:28.129Z,99536.27
2023-02-16T22:19:29.881Z,99529.38
2023-02-16T22:24:31.569Z,99534.00
2023-02-16T22:29:33.308Z,99539.94
2023-02-16T22:34:39.931Z,99536.41
2023-02-16T22:39:41.981Z,99539.73
2023-02-16T22:44:43.812Z,99545.43
2023-02-16T22:49:45.517Z,99546.58
2023-02-16T22:54:51.615Z,99549.05
2023-02-16T22:59:53.212Z,99555.57
2023-02-16T23:04:58.644Z,99546.31
2023-02-16T23:10:01.083Z,99541.70
2023-02-16T23:15:02.744Z,99531.30
2023-02-16T23:20:05.848Z,99530.05
2023-02-16T23:25:26.286Z,99526.84
2023-02-16T23:30:29.229Z,99521.55
2023-02-16T23:35:31.031Z,99519.98
2023-02-16T23:40:32.727Z,99516.11
2023-02-16T23:45:35.400Z,99506.71
2023-02-16T23:50:37.186Z,99501.98
2023-02-16T23:55:38.864Z,99501.83
